Time;durP1;ratioP1;P1;durP2;ratioP2;P2;SDS_P1;SDS_P2;PMS_P1;PMS_P2;Temp;Humidity;BMP_temperature;BMP_pressure;BME280_temperature;BME280_humidity;BME280_pressure;Samples;Min_cycle;Max_cycle;Signal;HPM_P1;HPM_P2
2022/04/01 00:02:04;;;;;;;6.55;2.10;;;1.60;99.90;;;;;;4976260;28;20037;-84
2022/04/01 00:04:30;;;;;;;5.88;1.80;;;1.60;99.90;;;;;;5000960;28;20033;-84
2022/04/01 00:06:56;;;;;;;7.00;1.95;;;1.60;99.90;;;;;;5018141;28;20037;-84
2022/04/01 00:09:22;;;;;;;5.85;1.95;;;3.00;99.90;;;;;;5021307;28;20209;-84
2022/04/01 00:11:48;;;;;;;6.95;1.85;;;3.00;99.90;;;;;;5008195;28;20531;-84
2022/04/01 00:14:14;;;;;;;6.32;2.00;;;3.00;99.90;;;;;;4993846;28;20033;-84
2022/04/01 00:16:40;;;;;;;5.47;1.95;;;1.70;99.90;;;;;;4989800;28;20398;-84
2022/04/01 00:19:06;;;;;;;4.72;1.75;;;2.30;99.90;;;;;;5043396;28;20049;-84
2022/04/01 00:21:33;;;;;;;5.72;1.80;;;1.70;99.90;;;;;;5000549;28;20367;-84
2022/04/01 00:23:58;;;;;;;7.00;1.88;;;1.70;99.90;;;;;;5008956;28;20116;-84
2022/04/01 00:26:24;;;;;;;8.00;2.20;;;3.00;99.90;;;;;;4990822;28;20200;-84
2022/04/01 00:28:50;;;;;;;7.63;2.15;;;3.20;99.90;;;;;;4993222;28;20041;-84
2022/04/01 00:31:15;;;;;;;5.70;1.80;;;1.70;99.90;;;;;;5004897;28;20115;-84
2022/04/01 00:33:41;;;;;;;5.80;1.90;;;1.70;99.90;;;;;;5004949;28;20045;-84
2022/04/01 00:36:07;;;;;;;6.15;2.00;;;1.70;99.90;;;;;;5006443;28;20042;-84
2022/04/01 00:38:33;;;;;;;4.85;1.77;;;1.70;99.90;;;;;;5009205;28;20033;-84
2022/04/01 00:40:59;;;;;;;9.10;2.28;;;2.70;99.90;;;;;;4973426;28;20103;-84
2022/04/01 00:43:34;;;;;;;5.75;1.83;;;1.70;99.90;;;;;;4989241;28;20091;-84
2022/04/01 00:46:00;;;;;;;7.13;2.00;;;1.70;99.90;;;;;;5004245;28;20396;-84
2022/04/01 00:48:27;;;;;;;7.55;2.30;;;2.50;99.90;;;;;;5000916;28;20042;-85
2022/04/01 00:50:53;;;;;;;5.68;2.08;;;2.00;99.90;;;;;;5012517;28;20129;-84
2022/04/01 00:53:20;;;;;;;7.10;2.30;;;2.50;99.90;;;;;;5003973;28;20052;-84
2022/04/01 00:55:46;;;;;;;7.97;2.10;;;1.60;99.90;;;;;;5025273;28;20033;-84
2022/04/01 00:58:12;;;;;;;4.57;1.63;;;2.90;99.90;;;;;;4968353;28;20042;-84
2022/04/01 01:00:38;;;;;;;6.00;1.92;;;1.60;99.90;;;;;;5012735;28;20091;-85
2022/04/01 01:03:05;;;;;;;4.63;1.80;;;1.60;99.90;;;;;;5022885;28;20045;-83
2022/04/01 01:05:31;;;;;;;6.00;2.00;;;2.80;99.90;;;;;;5023421;28;20117;-84
2022/04/01 01:07:58;;;;;;;5.80;1.90;;;1.60;99.90;;;;;;4990159;28;20128;-84
2022/04/01 01:10:24;;;;;;;7.47;2.10;;;1.60;99.90;;;;;;4984519;28;20069;-84
2022/04/01 01:12:51;;;;;;;4.35;1.92;;;1.60;99.90;;;;;;5007806;28;20093;-84
2022/04/01 01:15:18;;;;;;;5.57;1.88;;;2.60;99.90;;;;;;4966835;28;20046;-85
2022/04/01 01:17:47;;;;;;;6.00;1.83;;;1.70;99.90;;;;;;4989166;28;20034;-84
2022/04/01 01:20:17;;;;;;;7.18;2.10;;;1.70;99.90;;;;;;4976440;28;20080;-84
2022/04/01 01:22:44;;;;;;;6.85;2.20;;;2.90;99.90;;;;;;5004225;28;20067;-84
2022/04/01 01:25:12;;;;;;;6.53;1.90;;;2.90;99.90;;;;;;4980275;28;20046;-84
2022/04/01 01:27:38;;;;;;;5.72;1.88;;;1.00;99.90;;;;;;4986970;28;21989;-84
2022/04/01 01:30:07;;;;;;;9.77;1.80;;;2.70;99.90;;;;;;4982333;28;20403;-84
2022/04/01 01:32:34;;;;;;;6.50;1.98;;;1.70;99.90;;;;;;4977784;28;20065;-85
2022/04/01 01:35:05;;;;;;;8.15;2.30;;;1.70;99.90;;;;;;4990774;28;20038;-85
2022/04/01 01:37:30;;;;;;;5.20;1.80;;;1.70;99.90;;;;;;4979248;28;20038;-85
2022/04/01 01:39:56;;;;;;;6.22;2.10;;;2.80;99.90;;;;;;4979836;28;20029;-84
2022/04/01 01:42:22;;;;;;;5.00;1.85;;;3.10;99.90;;;;;;4999015;28;20137;-84
2022/04/01 01:44:48;;;;;;;7.13;2.05;;;1.80;99.90;;;;;;4979761;28;20033;-84
2022/04/01 01:47:13;;;;;;;8.02;2.20;;;1.80;99.90;;;;;;5009572;28;20033;-84
2022/04/01 01:55:07;;;;;;;7.28;2.10;;;3.20;99.90;;;;;;4983554;28;20045;-84
2022/04/01 01:57:35;;;;;;;5.60;1.80;;;1.80;99.90;;;;;;4979388;28;20494;-84
2022/04/01 02:00:10;;;;;;;6.35;2.10;;;1.80;99.90;;;;;;4995170;28;20042;-84
2022/04/01 02:02:37;;;;;;;6.53;2.05;;;1.90;99.90;;;;;;4990144;28;20100;-84
2022/04/01 02:05:06;;;;;;;7.35;2.10;;;1.90;99.90;;;;;;4973484;28;20403;-85
2022/04/01 02:07:32;;;;;;;6.65;2.22;;;1.90;99.90;;;;;;4998157;28;20056;-84
2022/04/01 02:09:59;;;;;;;5.97;2.10;;;1.90;99.90;;;;;;5023860;28;20087;-85
2022/04/01 02:12:24;;;;;;;6.10;1.80;;;1.90;99.90;;;;;;5008448;28;20495;-85
2022/04/01 02:14:50;;;;;;;6.85;2.20;;;1.90;99.90;;;;;;5030666;28;20109;-85
2022/04/01 02:17:16;;;;;;;7.47;2.25;;;1.90;99.90;;;;;;4994094;28;20143;-84
2022/04/01 02:19:41;;;;;;;7.00;2.17;;;1.90;99.90;;;;;;4978108;28;20128;-84
2022/04/01 02:22:07;;;;;;;5.65;1.90;;;3.00;99.90;;;;;;4992102;28;20041;-84
2022/04/01 02:24:33;;;;;;;7.20;1.95;;;2.50;99.90;;;;;;4976200;28;20060;-84
2022/04/01 02:26:59;;;;;;;7.40;2.05;;;1.90;99.90;;;;;;4997307;28;20072;-85
2022/04/01 02:29:25;;;;;;;5.75;1.90;;;3.10;99.90;;;;;;4996216;28;20059;-85
2022/04/01 02:31:52;;;;;;;6.93;2.20;;;1.90;99.90;;;;;;5013893;28;20033;-85
2022/04/01 02:34:20;;;;;;;6.82;2.40;;;1.90;99.90;;;;;;5008278;28;20394;-84
2022/04/01 02:36:45;;;;;;;9.68;2.20;;;1.80;99.90;;;;;;5010974;28;20043;-85
2022/04/01 02:39:11;;;;;;;6.70;2.08;;;1.90;99.90;;;;;;5004818;28;20042;-85
2022/04/01 02:41:37;;;;;;;7.22;2.10;;;3.10;99.90;;;;;;4982500;28;20390;-85
2022/04/01 02:44:09;;;;;;;5.50;2.10;;;1.90;99.90;;;;;;4993865;28;20528;-85
2022/04/01 02:46:45;;;;;;;7.40;2.15;;;1.90;99.90;;;;;;4998931;28;20047;-85
2022/04/01 02:49:14;;;;;;;8.40;1.95;;;3.60;99.90;;;;;;5005737;28;20167;-85
2022/04/01 02:51:42;;;;;;;7.05;2.42;;;1.90;99.90;;;;;;5028585;28;20041;-84
2022/04/01 02:54:08;;;;;;;6.35;2.03;;;3.40;99.90;;;;;;5030232;28;20049;-84
2022/04/01 02:56:35;;;;;;;9.20;2.25;;;2.60;99.90;;;;;;5012509;28;20366;-85
2022/04/01 02:59:01;;;;;;;8.35;2.22;;;2.00;99.90;;;;;;5001612;28;20045;-85
2022/04/01 03:01:28;;;;;;;8.00;2.03;;;2.70;99.90;;;;;;5013083;28;20490;-85
2022/04/01 03:03:55;;;;;;;6.03;1.83;;;2.00;99.90;;;;;;4988271;28;20040;-85
2022/04/01 03:06:21;;;;;;;6.38;1.90;;;2.00;99.90;;;;;;5008131;28;20041;-85
2022/04/01 03:08:49;;;;;;;5.68;1.80;;;3.60;99.90;;;;;;5027883;28;20071;-85
2022/04/01 03:11:15;;;;;;;6.75;1.90;;;2.00;99.90;;;;;;4999973;28;20049;-85
2022/04/01 03:13:41;;;;;;;5.43;1.73;;;2.00;99.90;;;;;;5012694;28;20087;-84
2022/04/01 03:16:07;;;;;;;4.68;1.85;;;2.00;99.90;;;;;;4976131;28;20040;-84
2022/04/01 03:18:32;;;;;;;8.98;2.20;;;2.00;99.90;;;;;;5006162;28;20049;-84
2022/04/01 03:20:58;;;;;;;6.20;1.95;;;2.00;99.90;;;;;;4974586;28;20113;-84
2022/04/01 03:23:24;;;;;;;4.85;1.67;;;2.00;99.90;;;;;;5023985;28;20061;-84
2022/04/01 03:25:52;;;;;;;6.68;1.80;;;2.00;99.90;;;;;;4987705;28;20029;-84
2022/04/01 03:28:18;;;;;;;5.38;1.70;;;3.00;99.90;;;;;;5009323;28;20114;-85
2022/04/01 03:30:44;;;;;;;6.13;1.85;;;2.00;99.90;;;;;;5012474;28;20495;-85
2022/04/01 03:33:10;;;;;;;6.68;1.60;;;2.00;99.90;;;;;;5016810;28;20570;-84
2022/04/01 03:35:37;;;;;;;5.45;1.60;;;3.50;99.90;;;;;;5025591;28;20120;-83
2022/04/01 03:38:05;;;;;;;5.57;1.70;;;2.00;99.90;;;;;;4991090;28;20077;-83
2022/04/01 03:40:31;;;;;;;6.63;1.85;;;3.20;99.90;;;;;;4993815;28;20037;-85
2022/04/01 03:42:57;;;;;;;6.40;1.80;;;2.00;99.90;;;;;;4973862;28;20032;-84
2022/04/01 03:45:23;;;;;;;8.13;2.20;;;2.00;99.90;;;;;;5028664;28;20710;-84
2022/04/01 03:47:59;;;;;;;7.47;1.90;;;2.20;99.90;;;;;;4995578;28;20137;-85
2022/04/01 03:50:32;;;;;;;5.75;1.80;;;2.60;99.90;;;;;;5007079;28;20034;-83
2022/04/01 03:53:06;;;;;;;8.03;1.70;;;2.00;99.90;;;;;;5007556;28;20041;-84
2022/04/01 03:55:35;;;;;;;6.60;1.92;;;2.10;99.90;;;;;;5006191;28;20283;-84
2022/04/01 03:58:13;;;;;;;6.70;1.95;;;3.20;99.90;;;;;;5005314;28;20069;-83
2022/04/01 04:00:41;;;;;;;5.85;1.70;;;3.30;99.90;;;;;;5013292;28;20103;-84
2022/04/01 04:03:09;;;;;;;5.78;1.75;;;2.40;99.90;;;;;;5011457;28;20479;-85
2022/04/01 04:05:38;;;;;;;6.88;1.77;;;2.10;99.90;;;;;;5014228;28;20548;-84
2022/04/01 04:08:06;;;;;;;7.93;1.98;;;2.80;99.90;;;;;;5007062;28;20061;-84
2022/04/01 04:10:34;;;;;;;6.53;1.90;;;3.40;99.90;;;;;;4984405;28;20129;-84
2022/04/01 04:13:06;;;;;;;6.72;1.95;;;3.10;99.90;;;;;;5004925;28;20208;-85
2022/04/01 04:15:41;;;;;;;6.75;1.90;;;2.50;99.90;;;;;;5025806;28;20084;-83
2022/04/01 04:18:12;;;;;;;5.63;1.65;;;2.20;99.90;;;;;;5008192;28;20056;-84
2022/04/01 04:21:05;;;;;;;5.90;1.75;;;2.10;99.90;;;;;;5003801;28;20030;-83
2022/04/01 04:23:51;;;;;;;7.88;1.88;;;2.10;99.90;;;;;;5006202;28;20042;-84
2022/04/01 04:26:44;;;;;;;5.22;1.80;;;2.10;99.90;;;;;;5020886;28;20049;-84
2022/04/01 04:29:13;;;;;;;5.43;1.90;;;3.30;99.90;;;;;;5001500;28;20184;-83
2022/04/01 04:31:58;;;;;;;6.93;1.80;;;2.10;99.90;;;;;;5008432;28;20048;-84
2022/04/01 04:34:30;;;;;;;6.15;1.70;;;2.10;99.90;;;;;;5010149;28;20072;-82
2022/04/01 04:36:58;;;;;;;7.83;1.97;;;2.10;99.90;;;;;;5009377;28;20041;-83
2022/04/01 04:39:34;;;;;;;7.35;2.03;;;2.10;99.90;;;;;;4997120;28;20034;-84
2022/04/01 04:42:01;;;;;;;5.63;2.20;;;2.40;99.90;;;;;;5014090;28;20033;-84
2022/04/01 04:44:29;;;;;;;5.60;1.80;;;3.40;99.90;;;;;;5013735;28;20087;-84
2022/04/01 04:47:05;;;;;;;6.85;1.88;;;2.10;99.90;;;;;;4988631;28;20065;-85
2022/04/01 04:49:31;;;;;;;6.05;1.70;;;2.10;99.90;;;;;;5012178;28;20041;-83
2022/04/01 04:51:59;;;;;;;5.18;1.80;;;2.40;99.90;;;;;;5028674;28;20038;-85
2022/04/01 04:54:25;;;;;;;6.88;1.92;;;3.10;99.90;;;;;;4996386;28;20494;-82
2022/04/01 04:56:53;;;;;;;6.25;1.77;;;2.30;99.90;;;;;;5029737;28;20073;-83
2022/04/01 04:59:23;;;;;;;7.85;2.20;;;2.70;99.90;;;;;;5013264;28;20041;-83
2022/04/01 05:02:02;;;;;;;8.45;1.90;;;3.80;99.90;;;;;;4993178;28;20536;-83
2022/04/01 05:04:39;;;;;;;7.05;1.92;;;2.10;99.90;;;;;;5007754;28;20042;-83
2022/04/01 05:07:29;;;;;;;6.25;1.95;;;2.10;99.90;;;;;;5025141;28;20067;-83
2022/04/01 05:10:12;;;;;;;7.25;1.77;;;2.10;99.90;;;;;;5020257;28;20064;-83
2022/04/01 05:12:49;;;;;;;7.82;1.90;;;2.10;99.90;;;;;;5012921;28;20056;-82
2022/04/01 05:15:19;;;;;;;7.95;1.90;;;2.80;99.90;;;;;;5009423;28;20276;-83
2022/04/01 05:18:10;;;;;;;6.88;2.05;;;2.10;99.90;;;;;;5013361;28;20056;-83
2022/04/01 05:20:38;;;;;;;6.75;2.17;;;2.10;99.90;;;;;;5011027;28;20348;-83
2022/04/01 05:23:11;;;;;;;4.80;1.80;;;2.10;99.90;;;;;;5013051;28;20037;-83
2022/04/01 05:25:42;;;;;;;8.68;1.88;;;2.50;99.90;;;;;;5011600;28;20136;-83
2022/04/01 05:28:22;;;;;;;6.95;1.98;;;2.10;99.90;;;;;;5031311;28;20046;-84
2022/04/01 05:31:01;;;;;;;5.68;1.77;;;2.10;99.90;;;;;;5008691;28;20168;-83
2022/04/01 05:33:41;;;;;;;8.23;2.20;;;3.70;99.90;;;;;;5012186;28;20034;-84
2022/04/01 05:36:09;;;;;;;6.38;1.67;;;2.10;99.90;;;;;;5008916;28;20053;-84
2022/04/01 05:38:35;;;;;;;6.13;1.70;;;2.20;99.90;;;;;;5001058;28;20096;-84
2022/04/01 05:41:02;;;;;;;7.68;1.90;;;2.50;99.90;;;;;;5005415;28;20529;-84
2022/04/01 05:43:29;;;;;;;8.38;2.00;;;2.20;99.90;;;;;;5005658;28;20029;-84
2022/04/01 05:45:56;;;;;;;6.80;1.80;;;3.20;99.90;;;;;;5013179;28;20033;-84
2022/04/01 05:48:23;;;;;;;5.25;1.70;;;2.20;99.90;;;;;;5029897;28;20052;-84
2022/04/01 05:50:52;;;;;;;8.50;1.98;;;3.50;99.90;;;;;;5003882;28;20122;-84
2022/04/01 05:53:21;;;;;;;5.65;1.80;;;2.30;99.90;;;;;;4988965;28;20041;-83
2022/04/01 05:55:48;;;;;;;5.20;1.73;;;2.20;99.90;;;;;;5012465;28;20050;-84
2022/04/01 05:58:14;;;;;;;9.90;2.00;;;3.50;99.90;;;;;;4997135;28;20041;-85
2022/04/01 06:00:59;;;;;;;7.25;1.85;;;2.30;99.90;;;;;;4998550;28;20040;-85
2022/04/01 06:03:25;;;;;;;6.78;2.00;;;2.30;99.90;;;;;;5012338;28;20041;-84
2022/04/01 06:06:04;;;;;;;4.82;1.90;;;2.30;99.90;;;;;;5006643;28;20041;-85
2022/04/01 06:08:49;;;;;;;7.95;2.10;;;2.30;99.90;;;;;;5019985;28;20542;-84
2022/04/01 06:11:42;;;;;;;5.88;2.00;;;2.30;99.90;;;;;;4991853;28;20049;-87
2022/04/01 06:14:45;;;;;;;6.53;1.90;;;2.40;99.90;;;;;;4999809;28;20491;-86
2022/04/01 06:17:47;;;;;;;6.15;1.90;;;2.40;99.90;;;;;;4997931;28;20454;-84
2022/04/01 06:20:15;;;;;;;5.50;1.83;;;2.40;99.90;;;;;;4997934;28;20053;-84
2022/04/01 06:22:59;;;;;;;6.65;1.80;;;3.30;99.90;;;;;;4992299;28;20048;-84
2022/04/01 06:25:29;;;;;;;7.25;1.98;;;2.40;99.90;;;;;;5016330;28;20033;-84
2022/04/01 06:28:09;;;;;;;6.60;1.70;;;2.50;99.90;;;;;;5002231;28;20394;-84
2022/04/01 06:30:37;;;;;;;6.40;1.90;;;3.10;99.90;;;;;;5010813;28;20422;-83
2022/04/01 06:33:37;;;;;;;5.88;1.83;;;2.50;99.90;;;;;;4999411;28;20045;-84
2022/04/01 06:36:07;;;;;;;6.90;1.90;;;2.50;99.90;;;;;;4999342;28;20041;-83
2022/04/01 06:38:51;;;;;;;5.53;1.80;;;3.50;99.90;;;;;;4967569;28;20083;-86
2022/04/01 06:41:30;;;;;;;7.25;2.17;;;2.60;99.90;;;;;;4996258;28;20099;-83
2022/04/01 06:43:55;;;;;;;5.63;2.03;;;2.60;99.90;;;;;;5033296;28;20417;-84
2022/04/01 06:46:21;;;;;;;6.07;1.80;;;4.00;99.90;;;;;;4977923;28;20034;-84
2022/04/01 06:48:47;;;;;;;8.18;1.95;;;2.60;99.90;;;;;;4983602;28;20533;-83
2022/04/01 06:51:14;;;;;;;7.13;2.30;;;2.70;99.90;;;;;;4980145;28;20236;-84
2022/04/01 06:53:41;;;;;;;6.25;1.70;;;3.50;99.90;;;;;;5008589;28;20070;-85
2022/04/01 06:56:10;;;;;;;8.48;1.80;;;2.70;99.90;;;;;;4995438;28;20137;-85
2022/04/01 06:58:36;;;;;;;6.45;2.03;;;2.70;99.90;;;;;;4990191;28;20047;-84
2022/04/01 07:01:03;;;;;;;5.05;1.73;;;2.70;99.90;;;;;;5005083;28;20112;-84
2022/04/01 07:03:30;;;;;;;5.65;1.70;;;2.70;99.90;;;;;;4989018;28;20107;-85
2022/04/01 07:05:56;;;;;;;6.25;1.73;;;3.90;99.90;;;;;;4982500;28;20037;-86
2022/04/01 07:08:22;;;;;;;3.55;1.60;;;2.70;99.90;;;;;;4999521;28;20131;-83
2022/04/01 07:10:48;;;;;;;5.72;2.00;;;3.30;99.90;;;;;;5016866;28;20140;-84
2022/04/01 07:13:15;;;;;;;4.53;1.60;;;2.80;99.90;;;;;;4998269;28;20095;-83
2022/04/01 07:15:41;;;;;;;4.88;1.60;;;2.80;99.90;;;;;;5010615;28;20110;-84
2022/04/01 07:18:08;;;;;;;7.28;1.83;;;4.10;99.90;;;;;;5005368;28;20308;-86
2022/04/01 07:20:34;;;;;;;4.82;1.80;;;3.30;99.90;;;;;;5013745;28;20029;-86
2022/04/01 07:23:00;;;;;;;6.20;1.80;;;2.80;99.90;;;;;;5015373;28;20044;-85
2022/04/01 07:25:25;;;;;;;5.00;1.80;;;4.20;99.90;;;;;;5005270;28;20037;-85
2022/04/01 07:27:53;;;;;;;7.75;1.83;;;3.70;99.90;;;;;;4989510;28;20075;-84
2022/04/01 07:30:19;;;;;;;6.30;1.80;;;2.80;99.90;;;;;;5021386;28;20067;-83
2022/04/01 07:32:45;;;;;;;9.25;2.13;;;2.90;99.90;;;;;;5016564;28;20033;-85
2022/04/01 07:35:13;;;;;;;6.60;1.90;;;2.80;99.90;;;;;;5006390;28;20045;-86
2022/04/01 07:37:41;;;;;;;4.55;1.55;;;3.90;99.90;;;;;;5015094;28;20037;-84
2022/04/01 07:40:08;;;;;;;6.35;1.90;;;4.20;99.90;;;;;;5010069;28;20502;-83
2022/04/01 07:42:35;;;;;;;4.55;1.63;;;2.90;99.90;;;;;;5026098;28;20425;-86
2022/04/01 07:45:02;;;;;;;5.55;1.80;;;4.20;99.90;;;;;;5012005;28;20072;-83
2022/04/01 07:47:28;;;;;;;9.50;2.00;;;4.20;99.90;;;;;;5027908;28;20505;-84
2022/04/01 07:49:54;;;;;;;6.43;2.10;;;2.90;99.90;;;;;;4998127;28;20041;-83
2022/04/01 07:52:22;;;;;;;5.82;2.08;;;3.80;99.90;;;;;;4993997;28;20342;-83
2022/04/01 07:54:49;;;;;;;5.88;1.80;;;2.70;99.90;;;;;;5005031;28;20043;-81
2022/04/01 07:57:17;;;;;;;8.10;2.00;;;3.70;99.90;;;;;;5007764;28;20048;-83
2022/04/01 07:59:44;;;;;;;6.18;1.90;;;2.70;99.90;;;;;;5014155;28;20041;-85
2022/04/01 08:02:10;;;;;;;5.80;2.05;;;2.70;99.90;;;;;;5003199;28;20049;-83
2022/04/01 08:04:36;;;;;;;6.47;2.08;;;2.60;99.90;;;;;;5005428;28;20033;-84
2022/04/01 08:07:02;;;;;;;5.38;1.90;;;4.10;99.90;;;;;;5008099;28;20482;-84
2022/04/01 08:09:28;;;;;;;6.45;1.92;;;2.70;99.90;;;;;;5003229;28;20056;-84
2022/04/01 08:11:54;;;;;;;7.85;2.17;;;4.10;99.90;;;;;;5013142;28;20048;-85
2022/04/01 08:14:20;;;;;;;6.15;1.95;;;3.10;99.90;;;;;;5018264;28;20042;-85
2022/04/01 08:16:47;;;;;;;7.28;2.22;;;2.60;99.90;;;;;;5014014;28;20037;-83
2022/04/01 08:19:14;;;;;;;5.85;2.00;;;3.10;99.90;;;;;;5011818;28;20069;-82
2022/04/01 08:21:40;;;;;;;5.28;2.05;;;2.50;99.90;;;;;;4999597;28;20185;-83
2022/04/01 08:24:07;;;;;;;5.38;1.85;;;2.50;99.90;;;;;;5013162;28;20430;-84
2022/04/01 08:26:33;;;;;;;6.30;2.00;;;2.50;99.90;;;;;;4989760;28;20503;-84
2022/04/01 08:28:59;;;;;;;6.07;2.00;;;2.50;99.90;;;;;;5026307;28;20133;-84
2022/04/01 08:31:25;;;;;;;7.20;2.10;;;4.40;99.90;;;;;;4993731;28;20039;-83
2022/04/01 08:33:53;;;;;;;6.22;2.00;;;3.10;99.90;;;;;;4989743;28;20316;-84
2022/04/01 08:36:19;;;;;;;8.00;2.00;;;4.30;99.90;;;;;;5007641;28;20052;-86
2022/04/01 08:38:45;;;;;;;5.25;1.85;;;3.10;99.90;;;;;;5009144;28;20037;-83
2022/04/01 08:41:20;;;;;;;7.10;2.17;;;2.80;99.90;;;;;;5011355;28;20082;-85
2022/04/01 08:43:47;;;;;;;7.80;2.10;;;2.90;99.90;;;;;;5009328;28;20057;-84
2022/04/01 08:46:15;;;;;;;5.47;1.95;;;2.80;99.90;;;;;;5012871;28;20040;-86
2022/04/01 08:48:42;;;;;;;6.00;2.25;;;2.90;99.90;;;;;;5028171;28;20051;-85
2022/04/01 08:51:07;;;;;;;6.65;2.08;;;2.90;99.90;;;;;;4978549;28;20033;-85
2022/04/01 08:53:41;;;;;;;7.00;2.22;;;2.90;99.90;;;;;;5021153;28;20405;-86
2022/04/01 08:56:08;;;;;;;7.25;2.40;;;3.00;99.90;;;;;;5018813;28;20523;-86
2022/04/01 08:58:35;;;;;;;8.07;2.72;;;4.20;99.90;;;;;;5027149;28;20053;-84
2022/04/01 09:01:02;;;;;;;6.70;2.28;;;4.70;99.90;;;;;;5009661;28;20393;-87
2022/04/01 09:03:29;;;;;;;7.32;2.35;;;3.90;99.90;;;;;;5013792;28;20045;-86
2022/04/01 09:05:57;;;;;;;10.55;2.90;;;2.80;99.90;;;;;;4979022;28;20069;-85
2022/04/01 09:08:25;;;;;;;7.55;2.42;;;2.80;99.90;;;;;;5022005;28;20053;-87
2022/04/01 09:11:04;;;;;;;7.82;2.92;;;2.80;99.90;;;;;;5016373;28;20209;-86
2022/04/01 09:13:35;;;;;;;8.60;3.00;;;2.80;99.90;;;;;;5013106;28;20033;-88
2022/04/01 09:16:01;;;;;;;8.73;2.90;;;2.90;99.90;;;;;;5012675;28;20468;-85
2022/04/01 09:18:33;;;;;;;10.27;3.10;;;3.00;99.90;;;;;;4980909;28;20049;-84
2022/04/01 09:20:59;;;;;;;8.75;2.90;;;3.00;99.90;;;;;;4993276;28;20510;-87
2022/04/01 09:23:25;;;;;;;10.10;3.05;;;4.40;99.90;;;;;;5018143;28;20029;-85
2022/04/01 09:25:52;;;;;;;8.20;2.83;;;4.50;99.90;;;;;;4983135;28;20181;-82
2022/04/01 09:28:32;;;;;;;9.00;2.70;;;3.20;99.90;;;;;;4995511;28;20125;-87
2022/04/01 09:31:12;;;;;;;8.73;2.78;;;3.30;99.90;;;;;;4996094;28;20062;-84
2022/04/01 09:33:45;;;;;;;8.07;2.72;;;3.50;99.90;;;;;;4997338;28;20091;-86
2022/04/01 09:36:15;;;;;;;9.70;2.78;;;3.40;99.90;;;;;;4997120;28;20056;-86
2022/04/01 09:38:57;;;;;;;7.68;2.78;;;3.50;99.90;;;;;;4991242;28;20042;-90
2022/04/01 09:41:31;;;;;;;8.73;2.75;;;3.50;99.90;;;;;;4997151;28;20041;-85
2022/04/01 09:44:08;;;;;;;8.27;2.53;;;3.50;99.90;;;;;;4996899;28;20045;-90
2022/04/01 09:46:38;;;;;;;7.05;2.60;;;3.60;99.90;;;;;;5003174;28;20038;-84
2022/04/01 09:49:04;;;;;;;7.82;2.72;;;4.60;99.90;;;;;;4980946;28;20107;-84
2022/04/01 09:51:33;;;;;;;10.27;2.58;;;4.80;99.90;;;;;;4960852;28;20550;-84
2022/04/01 09:54:03;;;;;;;8.75;3.00;;;3.60;99.90;;;;;;5004051;28;20057;-87
2022/04/01 09:56:40;;;;;;;8.38;2.92;;;3.70;99.90;;;;;;4998098;28;20457;-87
2022/04/01 09:59:07;;;;;;;9.88;2.75;;;4.10;99.90;;;;;;4997673;28;20549;-85
2022/04/01 10:01:37;;;;;;;8.15;2.80;;;5.00;99.90;;;;;;4979747;28;20037;-87
2022/04/01 10:04:04;;;;;;;7.65;2.63;;;4.80;99.90;;;;;;4980276;28;20049;-87
2022/04/01 10:06:32;;;;;;;8.00;2.40;;;4.00;99.90;;;;;;4984105;28;20147;-89
2022/04/01 10:09:06;;;;;;;7.85;2.63;;;5.10;99.90;;;;;;5023615;28;20060;-87
2022/04/01 10:11:35;;;;;;;7.28;2.70;;;4.00;99.90;;;;;;5013261;28;21617;-86
2022/04/01 10:14:14;;;;;;;8.63;2.70;;;4.70;99.90;;;;;;5029605;28;20072;-85
2022/04/01 10:16:45;;;;;;;7.47;2.40;;;4.20;99.90;;;;;;5027645;28;20046;-84
2022/04/01 10:19:24;;;;;;;7.80;2.90;;;4.10;99.90;;;;;;5020712;28;20045;-84
2022/04/01 10:21:51;;;;;;;8.98;2.63;;;4.00;99.90;;;;;;5038502;28;20052;-84
2022/04/01 10:24:34;;;;;;;7.47;2.55;;;4.00;99.90;;;;;;5009506;28;20047;-84
2022/04/01 10:27:37;;;;;;;9.30;2.58;;;5.00;99.90;;;;;;5001557;28;20119;-85
2022/04/01 10:30:04;;;;;;;9.25;2.58;;;4.00;99.90;;;;;;5018834;28;20480;-84
2022/04/01 10:32:37;;;;;;;8.20;2.85;;;3.90;99.90;;;;;;5023126;28;20041;-84
2022/04/01 10:35:05;;;;;;;6.97;2.58;;;5.00;99.90;;;;;;5028654;28;20561;-85
2022/04/01 10:37:32;;;;;;;9.27;2.53;;;3.90;99.90;;;;;;5011240;28;20045;-84
2022/04/01 10:40:16;;;;;;;7.25;2.83;;;5.30;99.90;;;;;;5015011;28;20048;-86
2022/04/01 10:42:43;;;;;;;6.63;2.33;;;4.10;99.90;;;;;;4992546;28;20418;-84
2022/04/01 10:45:17;;;;;;;7.82;2.65;;;5.60;99.90;;;;;;4998836;28;20085;-84
2022/04/01 10:53:35;;;;;;;7.85;2.60;;;4.10;99.90;;;;;;5034509;28;20045;-85
2022/04/01 10:56:23;;;;;;;8.65;2.35;;;4.20;99.90;;;;;;5010239;28;20158;-83
2022/04/01 10:59:17;;;;;;;7.30;2.55;;;4.20;99.90;;;;;;5030762;28;20052;-85
2022/04/01 11:01:52;;;;;;;9.15;2.90;;;4.30;99.90;;;;;;5010046;28;20041;-87
2022/04/01 11:04:17;;;;;;;7.22;2.22;;;5.60;99.90;;;;;;5028891;28;20039;-85
2022/04/01 11:06:52;;;;;;;8.02;2.25;;;4.40;99.90;;;;;;5011989;28;20120;-85
2022/04/01 11:09:37;;;;;;;7.80;2.80;;;4.40;99.90;;;;;;5014108;28;20159;-88
2022/04/01 11:12:15;;;;;;;7.82;2.33;;;4.50;99.90;;;;;;5028832;28;20052;-86
2022/04/01 11:15:19;;;;;;;6.80;2.17;;;4.60;99.90;;;;;;5007324;28;20058;-86
2022/04/01 11:17:44;;;;;;;5.88;2.10;;;4.50;99.90;;;;;;5020775;28;21301;-84
2022/04/01 11:20:19;;;;;;;6.60;2.40;;;4.60;99.90;;;;;;5028022;28;20522;-84
2022/04/01 11:22:54;;;;;;;8.32;2.38;;;5.40;99.90;;;;;;5031851;28;20058;-84
2022/04/01 11:25:27;;;;;;;5.15;1.90;;;4.70;99.90;;;;;;5025447;28;20047;-84
2022/04/01 11:28:08;;;;;;;7.35;2.20;;;4.90;99.90;;;;;;5031596;28;20116;-82
2022/04/01 11:30:40;;;;;;;7.80;2.17;;;4.90;99.90;;;;;;5031740;28;20094;-84
2022/04/01 11:33:11;;;;;;;7.55;2.10;;;4.90;99.90;;;;;;5025602;28;20044;-84
2022/04/01 11:35:41;;;;;;;7.20;2.22;;;4.90;99.90;;;;;;5006205;28;20087;-84
2022/04/01 11:38:15;;;;;;;6.68;2.25;;;4.90;99.90;;;;;;5002104;28;20049;-83
2022/04/01 11:40:42;;;;;;;6.97;2.10;;;5.00;99.90;;;;;;5005128;28;20041;-84
2022/04/01 11:43:11;;;;;;;7.85;2.40;;;5.60;99.90;;;;;;5025317;28;20048;-84
2022/04/01 11:45:40;;;;;;;6.15;2.00;;;6.00;99.90;;;;;;5017730;28;20474;-84
2022/04/01 11:48:26;;;;;;;5.95;1.85;;;5.10;99.90;;;;;;5031643;28;20071;-83
2022/04/01 11:51:04;;;;;;;7.50;2.10;;;5.10;99.90;;;;;;5006888;28;20584;-84
2022/04/01 11:53:35;;;;;;;6.97;1.90;;;5.20;99.90;;;;;;5024910;28;20088;-84
2022/04/01 11:56:06;;;;;;;6.82;1.90;;;5.20;99.90;;;;;;5018712;28;20068;-81
2022/04/01 11:58:49;;;;;;;6.85;1.83;;;5.20;99.90;;;;;;5021670;28;20037;-82
2022/04/01 12:01:24;;;;;;;6.20;1.98;;;5.20;99.90;;;;;;5016330;28;20034;-86
2022/04/01 12:03:50;;;;;;;7.13;1.80;;;6.40;99.90;;;;;;5024100;28;20036;-84
2022/04/01 12:09:06;;;;;;;5.35;1.70;;;6.00;99.90;;;;;;5023469;28;20186;-83
2022/04/01 12:11:45;;;;;;;5.72;1.90;;;5.20;99.90;;;;;;5009379;28;20041;-86
2022/04/01 12:14:11;;;;;;;6.40;2.10;;;5.20;99.90;;;;;;4995715;28;20033;-83
2022/04/01 12:16:41;;;;;;;3.80;1.63;;;5.20;99.90;;;;;;5008392;28;20083;-82
2022/04/01 12:19:13;;;;;;;6.75;2.28;;;5.20;99.90;;;;;;5027145;28;20324;-83
2022/04/01 12:21:39;;;;;;;7.22;2.30;;;5.10;99.90;;;;;;5029473;28;20123;-87
2022/04/01 12:24:05;;;;;;;8.57;2.10;;;5.20;99.90;;;;;;5011189;28;20474;-85
2022/04/01 12:26:31;;;;;;;8.73;2.30;;;5.30;99.90;;;;;;4995093;28;20040;-84
2022/04/01 12:28:56;;;;;;;7.28;1.95;;;6.50;99.90;;;;;;5011027;28;20040;-83
2022/04/01 12:31:27;;;;;;;6.10;2.13;;;5.30;99.90;;;;;;5011819;28;20042;-86
2022/04/01 12:33:57;;;;;;;7.10;1.90;;;5.30;99.90;;;;;;5014752;28;20044;-84
2022/04/01 12:36:30;;;;;;;5.45;1.80;;;6.50;99.90;;;;;;5027681;28;20037;-82
2022/04/01 12:39:03;;;;;;;7.65;2.33;;;5.40;99.90;;;;;;5013905;28;20040;-82
2022/04/01 12:41:29;;;;;;;7.75;2.20;;;6.90;99.90;;;;;;5006104;28;20282;-83
2022/04/01 12:43:56;;;;;;;6.32;2.10;;;5.40;99.90;;;;;;5012871;28;20106;-83
2022/04/01 12:46:35;;;;;;;7.95;2.00;;;5.60;99.90;;;;;;5028845;28;20045;-83
2022/04/01 12:49:14;;;;;;;8.00;2.20;;;5.60;99.90;;;;;;5010192;28;20136;-85
2022/04/01 12:51:49;;;;;;;8.35;2.08;;;5.60;99.90;;;;;;5013157;28;20397;-84
2022/04/01 12:54:39;;;;;;;7.18;2.20;;;7.00;99.90;;;;;;5016658;28;20079;-83
2022/04/01 12:57:07;;;;;;;6.13;2.00;;;5.60;99.90;;;;;;5024768;28;20037;-84
2022/04/01 12:59:39;;;;;;;7.70;2.25;;;5.60;99.90;;;;;;5008025;28;20376;-83
2022/04/01 13:02:13;;;;;;;7.50;2.10;;;5.70;99.90;;;;;;5013392;28;20375;-84
2022/04/01 13:04:49;;;;;;;5.45;1.77;;;5.60;99.90;;;;;;5012091;28;20207;-83
2022/04/01 13:07:20;;;;;;;6.22;1.83;;;5.60;99.90;;;;;;5027442;28;20374;-82
2022/04/01 13:10:14;;;;;;;6.15;2.17;;;5.60;99.90;;;;;;5002631;28;20049;-84
2022/04/01 13:12:46;;;;;;;8.73;2.20;;;5.60;99.90;;;;;;4999783;28;20037;-82
2022/04/01 13:15:13;;;;;;;5.15;1.85;;;5.60;99.90;;;;;;5012940;28;20104;-83
2022/04/01 13:17:49;;;;;;;6.13;2.00;;;6.90;99.90;;;;;;5013083;28;20048;-82
2022/04/01 13:20:19;;;;;;;5.65;1.90;;;6.00;99.90;;;;;;4996278;28;20200;-83
2022/04/01 13:22:45;;;;;;;8.25;2.15;;;5.70;99.90;;;;;;4991904;28;20030;-84
2022/04/01 13:25:22;;;;;;;7.03;2.00;;;6.20;99.90;;;;;;5012357;28;20501;-81
2022/04/01 13:27:48;;;;;;;5.80;1.92;;;5.40;99.90;;;;;;4998516;28;20508;-83
2022/04/01 13:30:15;;;;;;;7.28;1.92;;;5.40;99.90;;;;;;4993137;28;20041;-83